Portada
METAR-TAF:

METAR-TAF

Aeropuertos :

Aeropuerto de Yuzhno-Sajalinsk

Yuzhno-Sajalinsk, Rusia

latitud: 46-57N, longitud: 142-43E, altitud: 31 m

Observación

El informe se hizo hace 32 minutos, a las 19:30 UTC
Viento 6 kt del sureste
Temperatura 15°C
Humedad 94%
Presión 1015 hPa
Visibilidad: 2600 m
neblina

METAR: UHSS 151930Z 13003MPS 7000 2600S BR NSC 15/14 Q1015 R01/70D NOSIG RMK QFE760/1013

Hora: 07:02 (20:02 UTC)

Pronóstico

El informe se hizo hace 3 horas y 12 minutos, a las 16:50 UTC
Pronóstico válido del 15 a las 18 UTC al 16 a las 24 UTC
Viento 6 kt del sur-suroeste
Visibilidad: 0600 m
Cielo nuboso a una altura de 200 ft
niebla
Evolucionando progresivamente
del 15 a las 21 UTC al 15 a las 23 UTC
Visibilidad 10 km o más
Nubes dispersas a una altura de 4000 ft, Cumulonimbus.

TAF: UHSS 151650Z 1518/1624 20003MPS 0600 FG BKN002 BECMG 1521/1523 9999 NSW SCT040CB

Observaciones y pronósticos meteorológicos de más de 4000 aeropuertos (mensajes METAR y TAF).

Los puntos amarillos y rojos representan las estaciones disponibles.

Ponga el ratón en el punto deseado para ver el nombre de la estación.

Haga clic para ver las observaciones y los pronósticos meteorológicos.

Para cambiar el mapa : haga clic en los botones verdes con una cruz de color negro para hacer un zoom, en el botón verde con un guión para alejar o en las flechas verdes para mapas adyacentes.


METAR-TAF: